Time;durP1;ratioP1;P1;durP2;ratioP2;P2;SDS_P1;SDS_P2;PMS_P1;PMS_P2;Temp;Humidity;BMP_temperature;BMP_pressure;BME280_temperature;BME280_humidity;BME280_pressure;Samples;Min_cycle;Max_cycle;Signal;HPM_P1;HPM_P2
2022/11/24 00:02:00;;;;;;;15.85;8.15;;;205.00;2252.80;;;;;;5002905;28;20272;-77
2022/11/24 00:04:25;;;;;;;;;;;204.90;2252.80;;;;;;5015743;28;20470;-76
2022/11/24 00:06:52;;;;;;;14.45;8.68;;;204.90;2252.80;;;;;;5031238;28;19909;-76
2022/11/24 00:09:18;;;;;;;11.90;8.27;;;204.90;2252.80;;;;;;5019116;28;20491;-76
2022/11/24 00:11:45;;;;;;;14.90;10.27;;;204.80;2252.80;;;;;;5006593;28;20030;-76
2022/11/24 00:14:11;;;;;;;14.43;9.57;;;204.90;2252.80;;;;;;5007673;28;20056;-76
2022/11/24 00:16:37;;;;;;;14.40;9.27;;;204.90;2252.80;;;;;;5007336;28;20014;-76
2022/11/24 00:19:07;;;;;;;13.48;9.13;;;205.00;2252.80;;;;;;5004382;28;20073;-76
2022/11/24 00:21:34;;;;;;;12.80;9.10;;;205.00;2252.80;;;;;;5019549;28;20038;-76
2022/11/24 00:24:00;;;;;;;13.38;9.20;;;205.00;2252.80;;;;;;5002606;28;20364;-76
2022/11/24 00:26:27;;;;;;;15.73;9.68;;;205.10;2252.80;;;;;;5012919;28;20025;-76
2022/11/24 00:28:54;;;;;;;15.43;10.30;;;205.00;2252.80;;;;;;5005783;28;20029;-76
2022/11/24 00:31:27;;;;;;;13.70;9.13;;;205.10;2252.80;;;;;;5009662;28;20426;-75
2022/11/24 00:33:55;;;;;;;11.15;8.20;;;205.10;2252.80;;;;;;5024403;28;20161;-76
2022/11/24 00:36:23;;;;;;;12.05;8.35;;;205.10;2252.80;;;;;;5001486;28;20105;-76
2022/11/24 00:38:56;;;;;;;12.40;9.15;;;205.10;2252.80;;;;;;4997909;28;20018;-76
2022/11/24 00:41:23;;;;;;;14.63;9.98;;;205.10;2252.80;;;;;;4997196;28;20022;-75
2022/11/24 00:43:49;;;;;;;16.00;9.55;;;205.10;2252.80;;;;;;5009772;28;20108;-76
2022/11/24 00:46:15;;;;;;;12.05;9.05;;;205.00;2252.80;;;;;;4997784;28;20033;-77
2022/11/24 00:48:41;;;;;;;;;;;205.00;2252.80;;;;;;5007918;28;20030;-75
2022/11/24 00:51:10;;;;;;;12.07;8.52;;;205.00;2252.80;;;;;;5007112;28;19948;-75
2022/11/24 00:53:36;;;;;;;12.43;9.05;;;205.00;2252.80;;;;;;5008903;28;20416;-88
2022/11/24 00:56:02;;;;;;;;;;;205.00;2252.80;;;;;;5011744;28;20364;-76
2022/11/24 00:58:29;;;;;;;14.20;9.20;;;205.30;2252.80;;;;;;5004813;28;19916;-76
2022/11/24 01:00:55;;;;;;;14.00;8.80;;;180.10;2252.80;;;;;;5005768;28;20337;-86
2022/11/24 01:03:21;;;;;;;;;;;205.00;2252.80;;;;;;5006401;28;20029;-75
2022/11/24 01:05:47;;;;;;;13.25;8.98;;;205.10;2252.80;;;;;;5007300;28;20005;-75
2022/11/24 01:08:13;;;;;;;;;;;205.00;2252.80;;;;;;5001998;28;20031;-76
2022/11/24 01:10:38;;;;;;;14.45;8.70;;;205.10;2252.80;;;;;;4994300;28;19913;-76
2022/11/24 01:13:04;;;;;;;15.80;10.73;;;205.00;2252.80;;;;;;5000512;28;20038;-76
2022/11/24 01:15:30;;;;;;;;;;;205.00;2252.80;;;;;;5009470;28;20032;-75
2022/11/24 01:17:56;;;;;;;12.60;9.00;;;205.00;2252.80;;;;;;5010646;28;19906;-76
2022/11/24 01:20:22;;;;;;;15.90;9.77;;;205.00;2252.80;;;;;;5003906;28;20026;-76
2022/11/24 01:22:49;;;;;;;14.05;9.27;;;205.00;2252.80;;;;;;5008044;28;20026;-76
2022/11/24 01:25:15;;;;;;;13.90;9.93;;;205.10;2252.80;;;;;;5008652;28;20113;-76
2022/11/24 01:27:40;;;;;;;;;;;205.10;2252.80;;;;;;5010016;28;20053;-76
2022/11/24 01:30:07;;;;;;;14.02;9.35;;;205.10;2252.80;;;;;;5007454;28;19940;-75
2022/11/24 01:32:34;;;;;;;14.85;9.43;;;205.10;2252.80;;;;;;5002480;28;20034;-76
2022/11/24 01:35:01;;;;;;;16.05;10.18;;;205.00;2252.80;;;;;;5009065;28;20026;-76
2022/11/24 01:37:27;;;;;;;16.00;10.43;;;205.00;2252.80;;;;;;4994496;28;20037;-76
2022/11/24 01:39:52;;;;;;;;;;;205.00;2252.80;;;;;;5011063;28;20470;-76
2022/11/24 01:42:18;;;;;;;14.93;10.68;;;205.10;2252.80;;;;;;5002929;28;20014;-76
2022/11/24 01:44:43;;;;;;;;;;;205.00;2252.80;;;;;;5000400;28;20018;-76
2022/11/24 01:47:35;;;;;;;14.38;9.45;;;205.00;2252.80;;;;;;5003410;28;20004;-84
2022/11/24 01:50:03;;;;;;;18.90;10.55;;;205.10;2252.80;;;;;;5009202;28;20378;-76
2022/11/24 01:52:51;;;;;;;19.92;10.57;;;205.00;2252.80;;;;;;5006478;28;20050;-82
2022/11/24 01:55:24;;;;;;;17.75;9.00;;;205.00;2252.80;;;;;;4996128;28;20113;-76
2022/11/24 01:58:05;;;;;;;14.18;9.68;;;205.00;2252.80;;;;;;5010799;28;20079;-76
2022/11/24 02:00:33;;;;;;;15.13;10.02;;;205.00;2252.80;;;;;;5000175;28;20105;-77
2022/11/24 02:02:59;;;;;;;15.13;10.27;;;205.00;2252.80;;;;;;5002029;28;20042;-78
2022/11/24 02:05:31;;;;;;;;;;;205.00;2252.80;;;;;;4996193;28;20041;-76
2022/11/24 02:08:00;;;;;;;16.48;10.73;;;205.00;2252.80;;;;;;4998179;28;19909;-77
2022/11/24 02:10:25;;;;;;;17.05;10.20;;;204.90;2252.80;;;;;;4999588;28;20117;-76
2022/11/24 02:12:53;;;;;;;;;;;204.90;2252.80;;;;;;4995938;28;20168;-76
2022/11/24 02:15:20;;;;;;;17.50;10.45;;;204.90;2252.80;;;;;;5005194;28;20270;-76
2022/11/24 02:17:45;;;;;;;13.77;10.65;;;204.90;2252.80;;;;;;5007825;28;20038;-75
2022/11/24 02:20:12;;;;;;;;;;;204.90;2252.80;;;;;;5008159;28;20076;-77
2022/11/24 02:22:53;;;;;;;16.60;11.17;;;205.00;2252.80;;;;;;5007640;28;19909;-76
2022/11/24 02:25:22;;;;;;;18.38;10.38;;;205.00;2252.80;;;;;;5001786;28;20561;-87
2022/11/24 02:27:48;;;;;;;17.63;11.70;;;205.00;2252.80;;;;;;5004534;28;20579;-76
2022/11/24 02:30:14;;;;;;;16.60;10.85;;;205.00;2252.80;;;;;;5004905;28;20509;-77
2022/11/24 02:32:41;;;;;;;17.15;11.82;;;205.10;2252.80;;;;;;5001951;28;20470;-77
2022/11/24 02:35:09;;;;;;;16.52;10.55;;;205.10;2252.80;;;;;;5002191;28;20530;-76
2022/11/24 02:37:35;;;;;;;18.58;11.55;;;205.10;2252.80;;;;;;5001787;28;20034;-76
2022/11/24 02:40:00;;;;;;;;;;;205.10;2252.80;;;;;;4992893;28;20084;-82
2022/11/24 02:42:29;;;;;;;16.23;10.38;;;205.10;2252.80;;;;;;5002723;28;19910;-75
2022/11/24 02:44:59;;;;;;;20.08;11.32;;;205.10;2252.80;;;;;;5007527;28;20563;-77
2022/11/24 02:47:25;;;;;;;18.10;11.73;;;205.10;2252.80;;;;;;5007408;28;20112;-76
2022/11/24 02:49:50;;;;;;;;;;;205.00;2252.80;;;;;;4999594;28;20054;-76
2022/11/24 02:52:16;;;;;;;19.20;11.32;;;205.00;2252.80;;;;;;4997462;28;19922;-76
2022/11/24 02:54:42;;;;;;;26.27;12.45;;;205.00;2252.80;;;;;;5006115;28;20057;-77
2022/11/24 02:57:08;;;;;;;;;;;205.00;2252.80;;;;;;5008251;28;20018;-76
2022/11/24 02:59:34;;;;;;;18.30;11.52;;;205.00;2252.80;;;;;;4994442;28;19917;-76
2022/11/24 03:01:59;;;;;;;;;;;205.00;2252.80;;;;;;4992707;28;20050;-76
2022/11/24 03:04:25;;;;;;;18.13;11.02;;;205.00;2252.80;;;;;;5001406;28;19913;-77
2022/11/24 03:06:51;;;;;;;;;;;204.90;2252.80;;;;;;5007929;28;20048;-76
2022/11/24 03:09:17;;;;;;;19.70;11.93;;;204.90;2252.80;;;;;;5004396;28;19905;-76
2022/11/24 03:11:42;;;;;;;;;;;204.80;2252.80;;;;;;5007745;28;20073;-76
2022/11/24 03:14:08;;;;;;;18.95;11.52;;;204.90;2252.80;;;;;;4991857;28;19960;-76
2022/11/24 03:16:34;;;;;;;;;;;204.90;2252.80;;;;;;5004676;28;20020;-76
2022/11/24 03:19:00;;;;;;;21.00;10.38;;;204.90;2252.80;;;;;;5006371;28;20376;-76
2022/11/24 03:21:26;;;;;;;19.77;12.35;;;204.80;2252.80;;;;;;4992391;28;20394;-76
2022/11/24 03:23:52;;;;;;;;;;;205.00;2252.80;;;;;;5005625;28;20026;-88
2022/11/24 03:26:20;;;;;;;18.65;11.05;;;204.90;2252.80;;;;;;5006372;28;19928;-75
2022/11/24 03:28:46;;;;;;;21.40;11.95;;;205.00;2252.80;;;;;;5007159;28;20438;-77
2022/11/24 03:31:12;;;;;;;16.55;11.02;;;205.00;2252.80;;;;;;5001452;28;20494;-76
2022/11/24 03:33:38;;;;;;;17.05;10.20;;;204.90;2252.80;;;;;;4994562;28;20033;-76
2022/11/24 03:36:05;;;;;;;;;;;205.00;2252.80;;;;;;4994877;28;20022;-76
2022/11/24 03:38:31;;;;;;;18.17;9.25;;;205.00;2252.80;;;;;;4994416;28;19953;-76
2022/11/24 03:40:56;;;;;;;;;;;205.00;2252.80;;;;;;4993194;28;20061;-77
2022/11/24 03:43:22;;;;;;;16.92;10.85;;;204.90;2252.80;;;;;;5005770;28;19910;-76
2022/11/24 03:45:48;;;;;;;;;;;205.00;2252.80;;;;;;4992815;28;20014;-76
2022/11/24 03:48:16;;;;;;;15.65;10.38;;;205.00;2252.80;;;;;;5003955;28;19905;-76
2022/11/24 03:50:42;;;;;;;13.88;9.30;;;205.00;2252.80;;;;;;5008630;28;20018;-76
2022/11/24 03:53:08;;;;;;;18.23;10.43;;;205.00;2252.80;;;;;;5003795;28;20046;-76
2022/11/24 03:55:34;;;;;;;15.68;10.07;;;205.00;2252.80;;;;;;5006805;28;20093;-76
2022/11/24 03:58:00;;;;;;;;;;;205.00;2252.80;;;;;;5006000;28;20038;-76
2022/11/24 04:00:26;;;;;;;13.15;8.50;;;205.10;2252.80;;;;;;5008022;28;20028;-80
2022/11/24 04:02:52;;;;;;;18.55;9.55;;;205.00;2252.80;;;;;;4998484;28;20045;-76
2022/11/24 04:05:18;;;;;;;;;;;205.10;2252.80;;;;;;5004201;28;20018;-76
2022/11/24 04:07:44;;;;;;;13.23;8.38;;;205.00;2252.80;;;;;;4997103;28;19905;-76
2022/11/24 04:10:09;;;;;;;;;;;205.00;2252.80;;;;;;4994366;28;20026;-76
2022/11/24 04:12:44;;;;;;;11.77;7.85;;;205.00;2252.80;;;;;;5009224;28;19924;-77
2022/11/24 04:15:14;;;;;;;15.63;8.70;;;205.00;2252.80;;;;;;5003545;28;20172;-76
2022/11/24 04:17:40;;;;;;;15.52;9.30;;;205.00;2252.80;;;;;;5009699;28;20100;-78
2022/11/24 04:20:06;;;;;;;;;;;205.00;2252.80;;;;;;5004988;28;20085;-76
2022/11/24 04:22:32;;;;;;;10.73;7.57;;;205.00;2252.80;;;;;;5003590;28;19913;-75
2022/11/24 04:24:58;;;;;;;;;;;205.00;2252.80;;;;;;5010769;28;20029;-76
2022/11/24 04:27:23;;;;;;;11.45;7.60;;;205.00;2252.80;;;;;;5010305;28;19905;-83
2022/11/24 04:29:49;;;;;;;11.23;7.85;;;205.00;2252.80;;;;;;5007071;28;20025;-76
2022/11/24 04:32:16;;;;;;;11.25;7.70;;;205.00;2252.80;;;;;;5004188;28;20536;-76
2022/11/24 04:34:43;;;;;;;11.60;7.63;;;205.00;2252.80;;;;;;5009842;28;20032;-76
2022/11/24 04:37:09;;;;;;;12.27;7.80;;;205.00;2252.80;;;;;;5003779;28;20029;-76
2022/11/24 04:39:34;;;;;;;;;;;205.00;2252.80;;;;;;5015821;28;20026;-88
2022/11/24 04:42:00;;;;;;;14.27;7.90;;;205.00;2252.80;;;;;;5009848;28;19912;-76
2022/11/24 04:44:26;;;;;;;;;;;205.00;2252.80;;;;;;5011462;28;20029;-84
2022/11/24 04:46:52;;;;;;;12.00;7.45;;;205.00;2252.80;;;;;;5006545;28;19905;-76
2022/11/24 04:49:17;;;;;;;;;;;205.00;2252.80;;;;;;5005409;28;20034;-76
2022/11/24 04:51:43;;;;;;;11.93;7.60;;;205.00;2252.80;;;;;;5009670;28;19917;-76
2022/11/24 04:54:10;;;;;;;;;;;205.00;2252.80;;;;;;5007222;28;20419;-76
2022/11/24 04:56:36;;;;;;;9.95;5.95;;;205.10;2252.80;;;;;;5004109;28;19906;-87
2022/11/24 04:59:01;;;;;;;;;;;205.00;2252.80;;;;;;5009593;28;20045;-87
2022/11/24 05:01:27;;;;;;;11.60;6.90;;;205.00;2252.80;;;;;;5009616;28;19941;-76
2022/11/24 05:03:53;;;;;;;;;;;205.00;2252.80;;;;;;4994450;28;20117;-76
2022/11/24 05:06:19;;;;;;;10.25;6.40;;;205.10;2252.80;;;;;;5006553;28;19916;-76
2022/11/24 05:08:49;;;;;;;9.45;6.78;;;204.90;2252.80;;;;;;5011266;28;20018;-76
2022/11/24 05:11:15;;;;;;;10.40;6.40;;;205.00;2252.80;;;;;;5008891;28;20541;-76
2022/11/24 05:13:41;;;;;;;11.25;6.53;;;205.10;2252.80;;;;;;4995451;28;20027;-76
2022/11/24 05:16:07;;;;;;;;;;;205.10;2252.80;;;;;;5007644;28;20022;-78
2022/11/24 05:18:32;;;;;;;8.63;5.60;;;205.10;2252.80;;;;;;5003287;28;19905;-76
2022/11/24 05:20:58;;;;;;;;;;;205.00;2252.80;;;;;;5004170;28;20026;-77
2022/11/24 05:23:24;;;;;;;10.95;6.30;;;205.00;2252.80;;;;;;4994460;28;19910;-89
2022/11/24 05:25:51;;;;;;;12.98;6.40;;;205.00;2252.80;;;;;;5003129;28;20538;-88
2022/11/24 05:28:17;;;;;;;9.57;6.03;;;205.10;2252.80;;;;;;5003122;28;20040;-76
2022/11/24 05:30:44;;;;;;;8.93;5.38;;;205.10;2252.80;;;;;;5008803;28;20379;-78
2022/11/24 05:33:17;;;;;;;10.35;5.97;;;205.10;2252.80;;;;;;5005850;28;20031;-83
2022/11/24 05:35:44;;;;;;;9.18;6.25;;;205.00;2252.80;;;;;;4996247;28;20494;-77
2022/11/24 05:38:10;;;;;;;9.10;5.95;;;205.10;2252.80;;;;;;5010985;28;20034;-75
2022/11/24 05:40:36;;;;;;;;;;;205.00;2252.80;;;;;;4993692;28;20064;-77
2022/11/24 05:43:02;;;;;;;9.90;6.75;;;205.00;2252.80;;;;;;5007220;28;19944;-76
2022/11/24 05:45:28;;;;;;;13.75;6.65;;;205.20;2252.80;;;;;;4993892;28;20026;-75
2022/11/24 05:47:53;;;;;;;;;;;205.00;2252.80;;;;;;5011499;28;20388;-76
2022/11/24 05:50:21;;;;;;;16.13;7.50;;;205.10;2252.80;;;;;;5005861;28;19971;-76
2022/11/24 05:52:48;;;;;;;16.90;9.65;;;205.10;2252.80;;;;;;5010211;28;20477;-76
2022/11/24 05:55:14;;;;;;;13.63;7.68;;;205.10;2252.80;;;;;;5008289;28;20093;-75
2022/11/24 05:57:40;;;;;;;14.13;7.93;;;205.10;2252.80;;;;;;5009698;28;20056;-87
2022/11/24 06:00:07;;;;;;;12.20;7.78;;;205.10;2252.80;;;;;;4994619;28;20490;-76
2022/11/24 06:02:33;;;;;;;11.70;7.90;;;205.10;2252.80;;;;;;5005059;28;20022;-76
2022/11/24 06:04:59;;;;;;;;;;;205.00;2252.80;;;;;;4997359;28;20586;-78
2022/11/24 06:07:24;;;;;;;11.52;6.95;;;205.10;2252.80;;;;;;5018169;28;19910;-78
2022/11/24 06:09:50;;;;;;;;;;;205.10;2252.80;;;;;;5009919;28;20054;-79
2022/11/24 06:12:16;;;;;;;14.48;8.43;;;205.10;2252.80;;;;;;5006454;28;19914;-77
2022/11/24 06:14:41;;;;;;;;;;;205.10;2252.80;;;;;;5021102;28;20049;-83
2022/11/24 06:17:08;;;;;;;18.65;10.18;;;205.10;2252.80;;;;;;5002396;28;19983;-77
2022/11/24 06:19:34;;;;;;;11.90;7.72;;;205.00;2252.80;;;;;;4999779;28;20023;-87
2022/11/24 06:22:00;;;;;;;;;;;205.10;2252.80;;;;;;4996021;28;20045;-84
2022/11/24 06:24:25;;;;;;;22.67;9.68;;;205.10;2252.80;;;;;;4992726;28;19952;-74
2022/11/24 06:26:51;;;;;;;;;;;205.10;2252.80;;;;;;5013292;28;20081;-75
2022/11/24 06:29:17;;;;;;;12.30;6.65;;;205.10;2252.80;;;;;;5004068;28;19906;-74
2022/11/24 06:31:42;;;;;;;;;;;205.10;2252.80;;;;;;5007678;28;20065;-75
2022/11/24 06:34:12;;;;;;;11.68;6.68;;;205.20;2252.80;;;;;;5012729;28;19917;-76
2022/11/24 06:36:38;;;;;;;10.48;6.82;;;205.10;2252.80;;;;;;5008926;28;20025;-76
2022/11/24 06:39:05;;;;;;;10.52;7.00;;;205.10;2252.80;;;;;;5000419;28;20133;-78
2022/11/24 06:41:31;;;;;;;13.40;7.70;;;205.10;2252.80;;;;;;5010779;28;20025;-79
2022/11/24 06:43:56;;;;;;;;;;;205.20;2252.80;;;;;;4999326;28;20030;-77
2022/11/24 06:46:22;;;;;;;11.18;7.13;;;205.20;2252.80;;;;;;5010884;28;20419;-78
2022/11/24 06:48:51;;;;;;;;;;;205.20;2252.80;;;;;;5002092;28;20037;-79
2022/11/24 06:51:17;;;;;;;11.85;7.80;;;205.10;2252.80;;;;;;5010321;28;19918;-76
2022/11/24 06:53:43;;;;;;;13.05;6.97;;;205.20;2252.80;;;;;;5018705;28;20030;-89
2022/11/24 06:56:10;;;;;;;;;;;205.20;2252.80;;;;;;5007715;28;20076;-77
2022/11/24 06:58:41;;;;;;;10.93;6.32;;;205.20;2252.80;;;;;;4999699;28;19910;-78
2022/11/24 07:01:07;;;;;;;12.00;6.38;;;205.20;2252.80;;;;;;5011278;28;20117;-77
2022/11/24 07:03:32;;;;;;;;;;;205.20;2252.80;;;;;;4998224;28;20058;-83
2022/11/24 07:05:58;;;;;;;14.57;8.23;;;205.20;2252.80;;;;;;5000540;28;20346;-85
2022/11/24 07:08:24;;;;;;;;;;;205.20;2252.80;;;;;;5006695;28;20027;-78
2022/11/24 07:10:51;;;;;;;8.82;5.03;;;205.20;2252.80;;;;;;4993058;28;19917;-87
2022/11/24 07:13:18;;;;;;;12.00;6.90;;;205.20;2252.80;;;;;;5007980;28;20084;-75
2022/11/24 07:15:44;;;;;;;9.52;6.55;;;205.20;2252.80;;;;;;5011502;28;20018;-75
2022/11/24 07:18:09;;;;;;;;;;;205.30;2252.80;;;;;;4997890;28;20434;-76
2022/11/24 07:20:35;;;;;;;10.30;7.35;;;205.20;2252.80;;;;;;4998626;28;20354;-76
2022/11/24 07:23:01;;;;;;;;;;;205.20;2252.80;;;;;;5011896;28;20394;-85
2022/11/24 07:25:27;;;;;;;11.75;6.70;;;205.20;2252.80;;;;;;5010992;28;20339;-84
2022/11/24 07:27:57;;;;;;;10.68;6.88;;;205.20;2252.80;;;;;;4998188;28;20126;-74
2022/11/24 07:30:24;;;;;;;11.93;6.47;;;205.20;2252.80;;;;;;5001408;28;20038;-80
2022/11/24 07:32:50;;;;;;;10.38;6.90;;;205.20;2252.80;;;;;;5007408;28;20125;-75
2022/11/24 07:35:16;;;;;;;;;;;205.10;2252.80;;;;;;4999121;28;20064;-75
2022/11/24 07:37:42;;;;;;;24.05;12.05;;;205.00;2252.80;;;;;;4993059;28;20355;-79
2022/11/24 07:40:08;;;;;;;;;;;205.10;2252.80;;;;;;5003182;28;20124;-88
2022/11/24 07:42:34;;;;;;;11.90;7.93;;;205.10;2252.80;;;;;;5010893;28;19996;-77
2022/11/24 07:44:59;;;;;;;;;;;205.10;2252.80;;;;;;5011706;28;20060;-77
2022/11/24 07:47:25;;;;;;;14.68;7.43;;;205.00;2252.80;;;;;;5011095;28;20024;-77
2022/11/24 07:49:50;;;;;;;;;;;205.00;2252.80;;;;;;5020047;28;20073;-78
2022/11/24 07:52:16;;;;;;;23.80;12.57;;;205.00;2252.80;;;;;;5001756;28;20450;-87
2022/11/24 07:54:42;;;;;;;;;;;205.00;2252.80;;;;;;5011336;28;20026;-79
2022/11/24 07:57:07;;;;;;;15.40;9.07;;;205.00;2252.80;;;;;;5008371;28;19949;-81
2022/11/24 07:59:33;;;;;;;;;;;205.00;2252.80;;;;;;5000149;28;20479;-78
2022/11/24 08:01:58;;;;;;;16.17;9.63;;;205.10;2252.80;;;;;;4994696;28;19992;-78
2022/11/24 08:04:24;;;;;;;;;;;205.00;2252.80;;;;;;5011873;28;20025;-76
2022/11/24 08:06:50;;;;;;;10.27;6.68;;;204.90;2252.80;;;;;;5008620;28;19909;-79
2022/11/24 08:09:15;;;;;;;;;;;204.90;2252.80;;;;;;5015213;28;20038;-79
2022/11/24 08:11:41;;;;;;;17.02;10.57;;;204.90;2252.80;;;;;;5018532;28;20386;-84
2022/11/24 08:14:07;;;;;;;;;;;204.90;2252.80;;;;;;5010694;28;20057;-77
2022/11/24 08:16:32;;;;;;;16.75;10.23;;;204.90;2252.80;;;;;;5005143;28;20373;-79
2022/11/24 08:18:58;;;;;;;;;;;205.00;2252.80;;;;;;5001058;28;20034;-81
2022/11/24 08:21:24;;;;;;;16.98;11.02;;;204.90;2252.80;;;;;;5002148;28;19975;-79
2022/11/24 08:23:54;;;;;;;16.67;7.72;;;205.00;2252.80;;;;;;5005334;28;20383;-87
2022/11/24 08:26:20;;;;;;;12.50;7.05;;;205.00;2252.80;;;;;;5014836;28;20022;-79
2022/11/24 08:28:46;;;;;;;;;;;205.00;2252.80;;;;;;5013296;28;20029;-80
2022/11/24 08:31:15;;;;;;;10.27;6.72;;;205.00;2252.80;;;;;;5002763;28;20381;-85
2022/11/24 08:33:41;;;;;;;13.35;8.27;;;205.00;2252.80;;;;;;5014181;28;20061;-79
2022/11/24 08:36:12;;;;;;;15.13;10.60;;;205.00;2252.80;;;;;;5000808;28;20517;-81
2022/11/24 08:38:38;;;;;;;10.35;6.15;;;205.00;2252.80;;;;;;5014593;28;20063;-79
2022/11/24 08:41:05;;;;;;;;;;;205.00;2252.80;;;;;;5014591;28;20045;-79
2022/11/24 08:43:31;;;;;;;19.58;12.00;;;205.10;2252.80;;;;;;5015633;28;19905;-79
2022/11/24 08:46:09;;;;;;;13.00;8.70;;;205.10;2252.80;;;;;;4999826;28;20034;-83
2022/11/24 08:48:36;;;;;;;20.23;13.68;;;205.10;2252.80;;;;;;5003965;28;20026;-82
2022/11/24 08:51:13;;;;;;;17.38;11.10;;;205.20;2252.80;;;;;;5015135;28;20073;-82
2022/11/24 08:53:40;;;;;;;16.70;7.70;;;205.20;2252.80;;;;;;5014050;28;20045;-81
2022/11/24 08:56:07;;;;;;;48.00;31.30;;;205.20;2252.80;;;;;;5013222;28;20034;-79
2022/11/24 08:58:33;;;;;;;18.60;11.15;;;205.20;2252.80;;;;;;5014485;28;20053;-78
2022/11/24 09:01:05;;;;;;;23.83;14.27;;;205.30;2252.80;;;;;;5013205;28;20057;-76
2022/11/24 09:03:30;;;;;;;46.53;21.95;;;205.30;2252.80;;;;;;5012740;28;20091;-77
2022/11/24 09:05:56;;;;;;;;;;;205.30;2252.80;;;;;;4996715;28;20022;-77
2022/11/24 09:08:22;;;;;;;24.05;12.52;;;205.30;2252.80;;;;;;4994785;28;20310;-79
2022/11/24 09:10:47;;;;;;;;;;;205.30;2252.80;;;;;;5010328;28;20029;-89
2022/11/24 09:13:13;;;;;;;69.53;26.42;;;205.30;2252.80;;;;;;5005939;28;19914;-80
2022/11/24 09:15:39;;;;;;;;;;;205.30;2252.80;;;;;;5007064;28;20018;-76
2022/11/24 09:18:04;;;;;;;18.50;8.48;;;205.30;2252.80;;;;;;5000035;28;20281;-77
2022/11/24 09:20:30;;;;;;;;;;;205.30;2252.80;;;;;;5013254;28;20049;-77
2022/11/24 09:22:56;;;;;;;66.80;21.17;;;205.30;2252.80;;;;;;5010755;28;20374;-78
2022/11/24 09:25:22;;;;;;;;;;;205.30;2252.80;;;;;;5004179;28;20141;-90
2022/11/24 09:27:49;;;;;;;31.33;12.30;;;205.30;2252.80;;;;;;5026947;28;19905;-90
2022/11/24 09:30:15;;;;;;;37.00;14.43;;;205.30;2252.80;;;;;;5003584;28;20060;-77
2022/11/24 09:32:41;;;;;;;;;;;205.40;2252.80;;;;;;5013360;28;20050;-87
2022/11/24 09:35:09;;;;;;;15.30;8.10;;;205.40;2252.80;;;;;;5008815;28;19914;-76
2022/11/24 09:37:35;;;;;;;20.05;8.73;;;205.40;2252.80;;;;;;5000991;28;20022;-85
2022/11/24 09:40:00;;;;;;;;;;;205.40;2252.80;;;;;;5006343;28;20022;-76
2022/11/24 09:42:38;;;;;;;20.17;10.70;;;205.50;2252.80;;;;;;5002676;28;19913;-84
2022/11/24 09:45:07;;;;;;;35.88;12.70;;;205.60;2252.80;;;;;;5008310;28;20030;-79
2022/11/24 09:47:36;;;;;;;35.13;15.05;;;205.60;2252.80;;;;;;4997827;28;20053;-77
2022/11/24 09:50:03;;;;;;;19.90;7.78;;;205.60;2252.80;;;;;;5009546;28;20019;-82
2022/11/24 09:52:48;;;;;;;15.40;7.30;;;205.60;2252.80;;;;;;4999520;28;20046;-76
2022/11/24 09:55:26;;;;;;;22.92;8.48;;;205.60;2252.80;;;;;;5007951;28;20144;-74
2022/11/24 09:58:10;;;;;;;19.63;11.27;;;205.60;2252.80;;;;;;5021871;28;20027;-83
2022/11/24 10:00:36;;;;;;;30.83;10.18;;;205.60;2252.80;;;;;;4995424;28;20113;-77
2022/11/24 10:03:02;;;;;;;17.60;9.63;;;205.70;2252.80;;;;;;5013283;28;20026;-82
2022/11/24 10:05:31;;;;;;;;;;;205.60;2252.80;;;;;;5000543;28;20026;-77
2022/11/24 10:08:31;;;;;;;13.10;6.70;;;205.70;2252.80;;;;;;4993755;28;19916;-75
2022/11/24 10:10:59;;;;;;;18.00;8.68;;;205.60;2252.80;;;;;;5008592;28;20026;-78
2022/11/24 10:13:45;;;;;;;13.13;6.75;;;205.60;2252.80;;;;;;5000625;28;20034;-77
2022/11/24 10:16:37;;;;;;;13.10;7.75;;;205.70;2252.80;;;;;;5011841;28;20438;-76
2022/11/24 10:19:26;;;;;;;21.10;8.32;;;205.70;2252.80;;;;;;5015226;28;20498;-74
2022/11/24 10:22:18;;;;;;;23.65;9.07;;;205.70;2252.80;;;;;;4997154;28;20057;-77
2022/11/24 10:25:00;;;;;;;29.33;11.30;;;205.70;2252.80;;;;;;5010357;28;20049;-76
2022/11/24 10:27:33;;;;;;;17.92;8.10;;;205.70;2252.80;;;;;;5028036;28;20026;-74
2022/11/24 10:30:00;;;;;;;13.45;6.78;;;205.70;2252.80;;;;;;5013851;28;20049;-76
2022/11/24 10:32:31;;;;;;;28.95;11.55;;;205.70;2252.80;;;;;;5011713;28;20033;-73
2022/11/24 10:35:11;;;;;;;20.95;9.10;;;205.70;2252.80;;;;;;5009869;28;20026;-76
2022/11/24 10:37:48;;;;;;;17.25;7.90;;;205.70;2252.80;;;;;;5004032;28;20446;-76
2022/11/24 10:40:35;;;;;;;;;;;230.40;2252.80;;;;;;5013752;28;20111;-83
2022/11/24 10:43:01;;;;;;;14.57;7.05;;;230.40;2252.80;;;;;;5007734;28;20389;-84
2022/11/24 10:45:28;;;;;;;;;;;205.70;2252.80;;;;;;5003667;28;20030;-76
2022/11/24 10:47:53;;;;;;;18.23;7.63;;;230.40;2252.80;;;;;;5011786;28;19905;-75
2022/11/24 10:50:22;;;;;;;;;;;230.40;2252.80;;;;;;5003626;28;20364;-76
2022/11/24 10:53:02;;;;;;;14.88;7.78;;;230.40;2252.80;;;;;;4993991;28;19968;-75
2022/11/24 10:55:53;;;;;;;22.80;9.43;;;230.40;2252.80;;;;;;4993631;28;20023;-78
2022/11/24 10:58:28;;;;;;;24.83;11.45;;;230.50;2252.80;;;;;;5006372;28;20034;-74
2022/11/24 11:00:56;;;;;;;16.23;8.75;;;230.50;2252.80;;;;;;5000047;28;20022;-75
2022/11/24 11:03:30;;;;;;;17.98;8.60;;;230.50;2252.80;;;;;;5012970;28;20026;-87
2022/11/24 11:05:59;;;;;;;18.75;8.50;;;230.50;2252.80;;;;;;5002379;28;20486;-77
2022/11/24 11:08:28;;;;;;;17.08;10.07;;;230.50;2252.80;;;;;;5014657;28;20089;-78
2022/11/24 11:11:26;;;;;;;20.33;10.82;;;230.50;2252.80;;;;;;5015836;28;20022;-77
2022/11/24 11:13:59;;;;;;;25.90;12.35;;;230.50;2252.80;;;;;;5033460;28;20029;-77
2022/11/24 11:16:31;;;;;;;21.02;10.25;;;230.60;2252.80;;;;;;5031069;28;20022;-77
2022/11/24 11:18:57;;;;;;;23.60;9.27;;;230.60;2252.80;;;;;;5009771;28;20030;-78
2022/11/24 11:21:26;;;;;;;;;;;230.60;2252.80;;;;;;4995359;28;20038;-75
2022/11/24 11:23:52;;;;;;;19.75;10.27;;;230.60;2252.80;;;;;;5012553;28;20416;-77
2022/11/24 11:26:20;;;;;;;;;;;230.60;2252.80;;;;;;5003241;28;20034;-75
2022/11/24 11:29:09;;;;;;;21.70;10.05;;;230.60;2252.80;;;;;;4996884;28;19949;-76
2022/11/24 11:31:36;;;;;;;19.63;10.43;;;230.60;2252.80;;;;;;5011963;28;20026;-76
2022/11/24 11:34:13;;;;;;;19.67;10.35;;;230.70;2252.80;;;;;;5009471;28;20031;-85
2022/11/24 11:36:51;;;;;;;20.27;10.48;;;230.70;2252.80;;;;;;4996420;28;20022;-77
2022/11/24 11:39:31;;;;;;;20.15;9.55;;;230.70;2252.80;;;;;;5013178;28;20026;-77
2022/11/24 11:42:14;;;;;;;16.75;8.80;;;230.70;2252.80;;;;;;5015408;28;20030;-76
2022/11/24 11:45:00;;;;;;;21.42;10.13;;;230.70;2252.80;;;;;;5002544;28;20093;-77
2022/11/24 11:47:37;;;;;;;19.17;9.18;;;230.80;2252.80;;;;;;5000957;28;20458;-81
2022/11/24 11:50:14;;;;;;;13.48;8.25;;;230.80;2252.80;;;;;;4996638;28;20022;-75
2022/11/24 11:53:01;;;;;;;17.73;9.55;;;230.80;2252.80;;;;;;4995842;28;20047;-76
2022/11/24 11:55:49;;;;;;;17.08;8.65;;;230.90;2252.80;;;;;;5011902;28;20035;-85
2022/11/24 11:58:36;;;;;;;17.77;9.05;;;230.80;2252.80;;;;;;4996204;28;20023;-79
2022/11/24 12:01:45;;;;;;;18.30;8.35;;;230.90;2252.80;;;;;;5011701;28;20486;-79
2022/11/24 12:04:29;;;;;;;13.23;6.93;;;230.90;2252.80;;;;;;4996524;28;20037;-78
2022/11/24 12:07:13;;;;;;;12.32;6.57;;;230.90;2252.80;;;;;;5025312;28;20061;-78
2022/11/24 12:09:50;;;;;;;14.13;7.30;;;230.90;2252.80;;;;;;5007001;28;20425;-78
2022/11/24 12:12:22;;;;;;;13.25;6.40;;;230.90;2252.80;;;;;;4995035;28;20125;-88
2022/11/24 12:15:00;;;;;;;16.90;7.00;;;230.90;2252.80;;;;;;5018320;28;20022;-78
2022/11/24 12:17:59;;;;;;;11.98;5.72;;;231.00;2252.80;;;;;;5002835;28;20033;-76
2022/11/24 12:20:36;;;;;;;10.93;5.88;;;231.00;2252.80;;;;;;5006299;28;20028;-79
2022/11/24 12:23:26;;;;;;;11.35;5.10;;;231.10;2252.80;;;;;;5014273;28;20117;-81
2022/11/24 12:26:14;;;;;;;16.13;6.07;;;231.10;2252.80;;;;;;5014645;28;20026;-77
2022/11/24 12:29:09;;;;;;;10.95;5.93;;;231.10;2252.80;;;;;;5001984;28;20034;-76
2022/11/24 12:32:05;;;;;;;14.73;5.10;;;231.20;2252.80;;;;;;4990026;28;20088;-88
2022/11/24 12:35:05;;;;;;;12.93;6.25;;;231.20;2252.80;;;;;;4995675;28;20109;-78
2022/11/24 12:37:52;;;;;;;13.40;6.95;;;231.20;2252.80;;;;;;5007188;28;20029;-77
2022/11/24 12:40:34;;;;;;;11.75;6.15;;;231.30;2252.80;;;;;;5005514;28;20033;-79